sensor_id;sensor_type;location;lat;lon;timestamp;pressure;altitude;pressure_sealevel;temperature;humidity
45525;BME280;31437;58.350;13.828;2022-09-28T00:03:37;98945.84;;;10.38;100.00
45525;BME280;31437;58.350;13.828;2022-09-28T00:06:04;98940.47;;;10.40;100.00
45525;BME280;31437;58.350;13.828;2022-09-28T00:08:29;98950.00;;;10.41;100.00
45525;BME280;31437;58.350;13.828;2022-09-28T00:10:55;98938.69;;;10.40;100.00
45525;BME280;31437;58.350;13.828;2022-09-28T00:13:20;98948.25;;;10.41;100.00
45525;BME280;31437;58.350;13.828;2022-09-28T00:15:46;98950.00;;;10.41;100.00
45525;BME280;31437;58.350;13.828;2022-09-28T00:18:11;98952.63;;;10.41;100.00
45525;BME280;31437;58.350;13.828;2022-09-28T00:20:36;98949.19;;;10.40;100.00
45525;BME280;31437;58.350;13.828;2022-09-28T00:23:01;98954.41;;;10.40;100.00
45525;BME280;31437;58.350;13.828;2022-09-28T00:25:27;98950.97;;;10.40;100.00
45525;BME280;31437;58.350;13.828;2022-09-28T00:27:53;98955.25;;;10.41;100.00
45525;BME280;31437;58.350;13.828;2022-09-28T00:30:20;98950.00;;;10.41;100.00
45525;BME280;31437;58.350;13.828;2022-09-28T00:32:45;98953.50;;;10.41;100.00
45525;BME280;31437;58.350;13.828;2022-09-28T00:35:10;98957.03;;;10.40;100.00
45525;BME280;31437;58.350;13.828;2022-09-28T00:37:35;98949.09;;;10.42;100.00
45525;BME280;31437;58.350;13.828;2022-09-28T00:40:01;98956.81;;;10.43;100.00
45525;BME280;31437;58.350;13.828;2022-09-28T00:42:26;98954.19;;;10.43;100.00
45525;BME280;31437;58.350;13.828;2022-09-28T00:44:56;98954.09;;;10.45;100.00
45525;BME280;31437;58.350;13.828;2022-09-28T00:49:56;98958.38;;;10.46;100.00
45525;BME280;31437;58.350;13.828;2022-09-28T00:54:51;98960.06;;;10.47;100.00
45525;BME280;31437;58.350;13.828;2022-09-28T00:57:17;98954.84;;;10.47;100.00
45525;BME280;31437;58.350;13.828;2022-09-28T00:59:43;98957.47;;;10.47;100.00
45525;BME280;31437;58.350;13.828;2022-09-28T01:02:08;98946.00;;;10.48;100.00
45525;BME280;31437;58.350;13.828;2022-09-28T01:04:34;98956.38;;;10.50;100.00
45525;BME280;31437;58.350;13.828;2022-09-28T01:07:00;98951.97;;;10.50;100.00
45525;BME280;31437;58.350;13.828;2022-09-28T01:09:26;98953.66;;;10.51;100.00
45525;BME280;31437;58.350;13.828;2022-09-28T01:11:51;98956.88;;;10.55;100.00
45525;BME280;31437;58.350;13.828;2022-09-28T01:14:19;98954.97;;;10.57;100.00
45525;BME280;31437;58.350;13.828;2022-09-28T01:16:48;98953.94;;;10.59;100.00
45525;BME280;31437;58.350;13.828;2022-09-28T01:27:09;98957.88;;;10.65;100.00
45525;BME280;31437;58.350;13.828;2022-09-28T01:29:45;98953.56;;;10.64;100.00
45525;BME280;31437;58.350;13.828;2022-09-28T01:37:38;98958.50;;;10.68;100.00
45525;BME280;31437;58.350;13.828;2022-09-28T01:40:06;98962.78;;;10.69;100.00
45525;BME280;31437;58.350;13.828;2022-09-28T01:42:33;98957.66;;;10.68;99.97
45525;BME280;31437;58.350;13.828;2022-09-28T01:45:02;98955.88;;;10.68;99.89
45525;BME280;31437;58.350;13.828;2022-09-28T01:47:30;98963.75;;;10.68;99.79
45525;BME280;31437;58.350;13.828;2022-09-28T01:49:58;98957.53;;;10.69;99.70
45525;BME280;31437;58.350;13.828;2022-09-28T01:52:27;98963.59;;;10.70;99.60
45525;BME280;31437;58.350;13.828;2022-09-28T01:55:11;98961.81;;;10.71;99.52
45525;BME280;31437;58.350;13.828;2022-09-28T02:00:04;98974.81;;;10.72;99.34
45525;BME280;31437;58.350;13.828;2022-09-28T02:02:32;98968.63;;;10.73;99.25
45525;BME280;31437;58.350;13.828;2022-09-28T02:07:38;98972.94;;;10.74;99.12
45525;BME280;31437;58.350;13.828;2022-09-28T02:10:05;98975.56;;;10.74;99.06
45525;BME280;31437;58.350;13.828;2022-09-28T02:12:34;98979.00;;;10.75;99.00
45525;BME280;31437;58.350;13.828;2022-09-28T02:15:15;98987.72;;;10.75;98.95
45525;BME280;31437;58.350;13.828;2022-09-28T02:17:42;98977.22;;;10.75;98.90
45525;BME280;31437;58.350;13.828;2022-09-28T02:20:08;98979.75;;;10.77;98.86
45525;BME280;31437;58.350;13.828;2022-09-28T02:22:37;98986.66;;;10.78;98.82
45525;BME280;31437;58.350;13.828;2022-09-28T02:29:55;98967.19;;;10.69;98.72
45525;BME280;31437;58.350;13.828;2022-09-28T02:32:20;98983.81;;;10.81;98.70
45525;BME280;31437;58.350;13.828;2022-09-28T02:34:46;98981.06;;;10.82;98.68
45525;BME280;31437;58.350;13.828;2022-09-28T02:37:11;98980.22;;;10.82;98.67
45525;BME280;31437;58.350;13.828;2022-09-28T02:39:36;98989.06;;;10.81;98.66
45525;BME280;31437;58.350;13.828;2022-09-28T02:42:24;98986.28;;;10.82;98.63
45525;BME280;31437;58.350;13.828;2022-09-28T02:55:04;98969.25;;;10.77;98.57
45525;BME280;31437;58.350;13.828;2022-09-28T03:05:18;98965.91;;;10.75;98.56
45525;BME280;31437;58.350;13.828;2022-09-28T03:07:57;98960.66;;;10.75;98.55
45525;BME280;31437;58.350;13.828;2022-09-28T03:13:01;98961.63;;;10.74;98.53
45525;BME280;31437;58.350;13.828;2022-09-28T03:15:28;98956.38;;;10.74;98.53
45525;BME280;31437;58.350;13.828;2022-09-28T03:17:55;98955.41;;;10.75;98.53
45525;BME280;31437;58.350;13.828;2022-09-28T03:20:20;98963.28;;;10.75;98.52
45525;BME280;31437;58.350;13.828;2022-09-28T03:22:45;98963.38;;;10.73;98.51
45525;BME280;31437;58.350;13.828;2022-09-28T03:25:11;98972.94;;;10.74;98.53
45525;BME280;31437;58.350;13.828;2022-09-28T03:27:36;98972.22;;;10.72;98.52
45525;BME280;31437;58.350;13.828;2022-09-28T03:30:02;98964.25;;;10.74;98.53
45525;BME280;31437;58.350;13.828;2022-09-28T03:32:28;98972.94;;;10.74;98.55
45525;BME280;31437;58.350;13.828;2022-09-28T03:34:53;98971.25;;;10.73;98.56
45525;BME280;31437;58.350;13.828;2022-09-28T03:37:19;98970.31;;;10.74;98.58
45525;BME280;31437;58.350;13.828;2022-09-28T03:39:44;98978.19;;;10.74;98.59
45525;BME280;31437;58.350;13.828;2022-09-28T03:42:09;98975.56;;;10.74;98.61
45525;BME280;31437;58.350;13.828;2022-09-28T03:44:35;98971.16;;;10.75;98.64
45525;BME280;31437;58.350;13.828;2022-09-28T03:47:00;98972.94;;;10.74;98.64
45525;BME280;31437;58.350;13.828;2022-09-28T03:49:25;98978.28;;;10.73;98.66
45525;BME280;31437;58.350;13.828;2022-09-28T03:51:51;98970.31;;;10.74;98.69
45525;BME280;31437;58.350;13.828;2022-09-28T03:54:16;98968.53;;;10.75;98.70
45525;BME280;31437;58.350;13.828;2022-09-28T03:56:41;98975.44;;;10.76;98.71
45525;BME280;31437;58.350;13.828;2022-09-28T03:59:06;98978.66;;;10.79;98.74
45525;BME280;31437;58.350;13.828;2022-09-28T04:01:32;98974.38;;;10.78;98.79
45525;BME280;31437;58.350;13.828;2022-09-28T04:03:58;98972.72;;;10.77;98.83
45525;BME280;31437;58.350;13.828;2022-09-28T04:06:24;98972.72;;;10.77;98.87
45525;BME280;31437;58.350;13.828;2022-09-28T04:08:49;98979.75;;;10.77;98.91
45525;BME280;31437;58.350;13.828;2022-09-28T04:11:14;98975.44;;;10.76;98.94
45525;BME280;31437;58.350;13.828;2022-09-28T04:13:40;98981.50;;;10.76;98.99
45525;BME280;31437;58.350;13.828;2022-09-28T04:16:05;98981.50;;;10.76;99.06
45525;BME280;31437;58.350;13.828;2022-09-28T04:18:31;98982.47;;;10.75;99.12
45525;BME280;31437;58.350;13.828;2022-09-28T04:21:03;98983.44;;;10.74;99.18
45525;BME280;31437;58.350;13.828;2022-09-28T04:23:33;98972.94;;;10.74;99.27
45525;BME280;31437;58.350;13.828;2022-09-28T04:25:59;98972.94;;;10.74;99.34
45525;BME280;31437;58.350;13.828;2022-09-28T04:28:24;98966.88;;;10.74;99.40
45525;BME280;31437;58.350;13.828;2022-09-28T04:31:12;98966.88;;;10.74;99.47
45525;BME280;31437;58.350;13.828;2022-09-28T04:33:39;98959.09;;;10.72;99.54
45525;BME280;31437;58.350;13.828;2022-09-28T04:36:04;98955.63;;;10.72;99.62
45525;BME280;31437;58.350;13.828;2022-09-28T04:38:30;98962.53;;;10.73;99.68
45525;BME280;31437;58.350;13.828;2022-09-28T04:40:55;98953.00;;;10.72;99.72
45525;BME280;31437;58.350;13.828;2022-09-28T04:43:20;98965.28;;;10.71;99.77
45525;BME280;31437;58.350;13.828;2022-09-28T04:45:45;98961.94;;;10.69;99.83
45525;BME280;31437;58.350;13.828;2022-09-28T04:48:11;98964.56;;;10.69;99.88
45525;BME280;31437;58.350;13.828;2022-09-28T04:50:36;98966.22;;;10.70;100.00
45525;BME280;31437;58.350;13.828;2022-09-28T04:53:02;98957.53;;;10.69;100.00
45525;BME280;31437;58.350;13.828;2022-09-28T04:55:27;98956.78;;;10.67;100.00
45525;BME280;31437;58.350;13.828;2022-09-28T04:57:56;98953.47;;;10.65;100.00
45525;BME280;31437;58.350;13.828;2022-09-28T05:00:26;98947.41;;;10.65;100.00
45525;BME280;31437;58.350;13.828;2022-09-28T05:02:52;98949.16;;;10.64;100.00
45525;BME280;31437;58.350;13.828;2022-09-28T05:05:17;98959.66;;;10.64;100.00
45525;BME280;31437;58.350;13.828;2022-09-28T05:07:43;98950.03;;;10.65;100.00
45525;BME280;31437;58.350;13.828;2022-09-28T05:10:10;98961.34;;;10.65;100.00
45525;BME280;31437;58.350;13.828;2022-09-28T05:12:35;98956.09;;;10.65;100.00
45525;BME280;31437;58.350;13.828;2022-09-28T05:15:00;98954.31;;;10.66;100.00
45525;BME280;31437;58.350;13.828;2022-09-28T05:17:25;98951.44;;;10.69;100.00
45525;BME280;31437;58.350;13.828;2022-09-28T05:19:51;98955.88;;;10.68;100.00
45525;BME280;31437;58.350;13.828;2022-09-28T05:22:16;98945.38;;;10.68;100.00
45525;BME280;31437;58.350;13.828;2022-09-28T05:24:41;98961.81;;;10.71;100.00
45525;BME280;31437;58.350;13.828;2022-09-28T05:27:07;98946.81;;;10.73;100.00
45525;BME280;31437;58.350;13.828;2022-09-28T05:29:32;98948.50;;;10.74;100.00
45525;BME280;31437;58.350;13.828;2022-09-28T05:31:57;98950.38;;;10.72;100.00
45525;BME280;31437;58.350;13.828;2022-09-28T05:34:25;98941.69;;;10.71;100.00
45525;BME280;31437;58.350;13.828;2022-09-28T05:36:50;98935.59;;;10.71;100.00
45525;BME280;31437;58.350;13.828;2022-09-28T05:39:15;98945.25;;;10.70;100.00
45525;BME280;31437;58.350;13.828;2022-09-28T05:41:41;98936.53;;;10.69;100.00
45525;BME280;31437;58.350;13.828;2022-09-28T05:44:06;98927.72;;;10.71;100.00
45525;BME280;31437;58.350;13.828;2022-09-28T05:46:31;98940.72;;;10.72;100.00
45525;BME280;31437;58.350;13.828;2022-09-28T05:48:56;98911.06;;;10.72;100.00
45525;BME280;31437;58.350;13.828;2022-09-28T05:51:24;98924.03;;;10.73;100.00
45525;BME280;31437;58.350;13.828;2022-09-28T05:53:49;98929.28;;;10.73;100.00
45525;BME280;31437;58.350;13.828;2022-09-28T05:56:14;98922.28;;;10.74;100.00
45525;BME280;31437;58.350;13.828;2022-09-28T05:58:40;98913.53;;;10.73;100.00
45525;BME280;31437;58.350;13.828;2022-09-28T06:01:05;98910.81;;;10.75;100.00
45525;BME280;31437;58.350;13.828;2022-09-28T06:03:30;98916.78;;;10.77;100.00
45525;BME280;31437;58.350;13.828;2022-09-28T06:05:58;98918.47;;;10.78;100.00
45525;BME280;31437;58.350;13.828;2022-09-28T06:08:23;98913.22;;;10.78;100.00
45525;BME280;31437;58.350;13.828;2022-09-28T06:10:49;98913.22;;;10.78;100.00
45525;BME280;31437;58.350;13.828;2022-09-28T06:13:14;98894.03;;;10.77;100.00
45525;BME280;31437;58.350;13.828;2022-09-28T06:15:40;98895.81;;;10.77;100.00
45525;BME280;31437;58.350;13.828;2022-09-28T06:18:08;98891.50;;;10.76;100.00
45525;BME280;31437;58.350;13.828;2022-09-28T06:20:37;98894.94;;;10.76;100.00
45525;BME280;31437;58.350;13.828;2022-09-28T12:46:34;98360.28;;;13.29;100.00
45525;BME280;31437;58.350;13.828;2022-09-28T14:52:37;98383.78;;;12.05;100.00
45525;BME280;31437;58.350;13.828;2022-09-28T14:55:06;98394.72;;;12.01;100.00
45525;BME280;31437;58.350;13.828;2022-09-28T14:57:35;98389.31;;;12.02;100.00
45525;BME280;31437;58.350;13.828;2022-09-28T15:15:36;98409.72;;;11.79;100.00
45525;BME280;31437;58.350;13.828;2022-09-28T15:46:35;98420.72;;;11.33;100.00
45525;BME280;31437;58.350;13.828;2022-09-28T15:49:01;98423.63;;;11.30;100.00
45525;BME280;31437;58.350;13.828;2022-09-28T15:51:28;98423.88;;;11.27;100.00
45525;BME280;31437;58.350;13.828;2022-09-28T15:54:01;98435.56;;;11.23;100.00
45525;BME280;31437;58.350;13.828;2022-09-28T15:56:28;98438.47;;;11.20;100.00
45525;BME280;31437;58.350;13.828;2022-09-28T17:26:41;98691.47;;;9.93;100.00
45525;BME280;31437;58.350;13.828;2022-09-28T17:29:09;98699.69;;;9.89;100.00
45525;BME280;31437;58.350;13.828;2022-09-28T17:31:38;98700.72;;;9.86;100.00
45525;BME280;31437;58.350;13.828;2022-09-28T17:34:03;98709.53;;;9.85;100.00
45525;BME280;31437;58.350;13.828;2022-09-28T17:36:29;98710.63;;;9.83;100.00
45525;BME280;31437;58.350;13.828;2022-09-28T17:38:55;98716.69;;;9.83;100.00
45525;BME280;31437;58.350;13.828;2022-09-28T17:41:21;98718.47;;;9.83;100.00
45525;BME280;31437;58.350;13.828;2022-09-28T17:43:46;98719.16;;;9.85;100.00
45525;BME280;31437;58.350;13.828;2022-09-28T17:46:18;98732.03;;;9.88;100.00
45525;BME280;31437;58.350;13.828;2022-09-28T17:48:46;98718.00;;;9.89;100.00
45525;BME280;31437;58.350;13.828;2022-09-28T18:43:08;98687.06;;;9.35;100.00
45525;BME280;31437;58.350;13.828;2022-09-28T18:45:34;98704.28;;;9.26;100.00
45525;BME280;31437;58.350;13.828;2022-09-28T18:48:00;98685.47;;;9.21;100.00
45525;BME280;31437;58.350;13.828;2022-09-28T18:50:25;98677.22;;;9.14;100.00
45525;BME280;31437;58.350;13.828;2022-09-28T18:52:50;98677.78;;;9.06;100.00
45525;BME280;31437;58.350;13.828;2022-09-28T18:55:16;98676.44;;;9.01;100.00
45525;BME280;31437;58.350;13.828;2022-09-28T18:57:41;98660.22;;;8.96;100.00
45525;BME280;31437;58.350;13.828;2022-09-28T19:00:09;98647.00;;;8.86;100.00
45525;BME280;31437;58.350;13.828;2022-09-28T19:25:51;98641.53;;;8.52;100.00
45525;BME280;31437;58.350;13.828;2022-09-28T19:28:16;98653.16;;;8.48;100.00
45525;BME280;31437;58.350;13.828;2022-09-28T19:38:28;98654.19;;;8.33;100.00
45525;BME280;31437;58.350;13.828;2022-09-28T19:40:53;98658.66;;;8.31;100.00
45525;BME280;31437;58.350;13.828;2022-09-28T20:37:32;98700.25;;;8.34;100.00
45525;BME280;31437;58.350;13.828;2022-09-28T20:39:58;98697.75;;;8.32;100.00
45525;BME280;31437;58.350;13.828;2022-09-28T20:45:00;98704.75;;;8.32;100.00
45525;BME280;31437;58.350;13.828;2022-09-28T20:47:25;98711.75;;;8.31;100.00
45525;BME280;31437;58.350;13.828;2022-09-28T20:49:51;98711.88;;;8.30;100.00
45525;BME280;31437;58.350;13.828;2022-09-28T20:52:16;98700.69;;;8.28;100.00
45525;BME280;31437;58.350;13.828;2022-09-28T20:54:41;98711.22;;;8.26;100.00
45525;BME280;31437;58.350;13.828;2022-09-28T20:57:06;98709.69;;;8.24;100.00
45525;BME280;31437;58.350;13.828;2022-09-28T20:59:47;98715.81;;;8.23;100.00
45525;BME280;31437;58.350;13.828;2022-09-28T21:02:13;98712.59;;;8.19;100.00
45525;BME280;31437;58.350;13.828;2022-09-28T21:04:39;98723.25;;;8.16;100.00
45525;BME280;31437;58.350;13.828;2022-09-28T21:07:05;98713.75;;;8.15;100.00
45525;BME280;31437;58.350;13.828;2022-09-28T21:09:31;98712.19;;;8.12;100.00
45525;BME280;31437;58.350;13.828;2022-09-28T21:11:57;98711.34;;;8.12;100.00
